sensor_id;sensor_type;location;lat;lon;timestamp;temperature;humidity
67750;DHT22;54550;48.838;8.828;2022-12-18T00:01:35;-11.20;99.90
67750;DHT22;54550;48.838;8.828;2022-12-18T00:04:05;-11.00;99.90
67750;DHT22;54550;48.838;8.828;2022-12-18T00:06:32;-10.90;99.90
67750;DHT22;54550;48.838;8.828;2022-12-18T00:08:59;-10.90;99.90
67750;DHT22;54550;48.838;8.828;2022-12-18T00:11:28;-10.60;99.90
67750;DHT22;54550;48.838;8.828;2022-12-18T00:13:55;-10.80;99.90
67750;DHT22;54550;48.838;8.828;2022-12-18T00:16:23;-10.80;99.90
67750;DHT22;54550;48.838;8.828;2022-12-18T00:18:54;-10.90;99.90
67750;DHT22;54550;48.838;8.828;2022-12-18T00:21:21;-11.00;99.90
67750;DHT22;54550;48.838;8.828;2022-12-18T00:23:47;-11.10;99.90
67750;DHT22;54550;48.838;8.828;2022-12-18T00:26:16;-10.80;99.90
67750;DHT22;54550;48.838;8.828;2022-12-18T00:28:43;-11.20;99.90
67750;DHT22;54550;48.838;8.828;2022-12-18T00:31:11;-10.80;99.90
67750;DHT22;54550;48.838;8.828;2022-12-18T00:33:37;-11.10;99.90
67750;DHT22;54550;48.838;8.828;2022-12-18T00:36:09;-10.90;99.90
67750;DHT22;54550;48.838;8.828;2022-12-18T00:38:35;-10.90;99.90
67750;DHT22;54550;48.838;8.828;2022-12-18T00:41:01;-10.90;99.90
67750;DHT22;54550;48.838;8.828;2022-12-18T00:43:26;-11.00;99.90
67750;DHT22;54550;48.838;8.828;2022-12-18T00:45:52;-11.10;99.90
67750;DHT22;54550;48.838;8.828;2022-12-18T00:48:18;-11.10;99.90
67750;DHT22;54550;48.838;8.828;2022-12-18T00:50:43;-11.10;99.90
67750;DHT22;54550;48.838;8.828;2022-12-18T00:53:09;-11.10;99.90
67750;DHT22;54550;48.838;8.828;2022-12-18T00:55:34;-11.10;99.90
67750;DHT22;54550;48.838;8.828;2022-12-18T00:58:00;-10.90;99.90
67750;DHT22;54550;48.838;8.828;2022-12-18T01:00:26;-10.70;99.90
67750;DHT22;54550;48.838;8.828;2022-12-18T01:02:51;-10.70;99.90
67750;DHT22;54550;48.838;8.828;2022-12-18T01:05:17;-10.80;99.90
67750;DHT22;54550;48.838;8.828;2022-12-18T01:07:42;-10.80;99.90
67750;DHT22;54550;48.838;8.828;2022-12-18T01:10:09;-10.70;99.90
67750;DHT22;54550;48.838;8.828;2022-12-18T01:12:36;-10.80;99.90
67750;DHT22;54550;48.838;8.828;2022-12-18T01:15:03;-10.70;99.90
67750;DHT22;54550;48.838;8.828;2022-12-18T01:17:30;-10.70;99.90
67750;DHT22;54550;48.838;8.828;2022-12-18T01:19:55;-10.70;99.90
67750;DHT22;54550;48.838;8.828;2022-12-18T01:22:21;-10.60;99.90
67750;DHT22;54550;48.838;8.828;2022-12-18T01:24:46;-10.60;99.90
67750;DHT22;54550;48.838;8.828;2022-12-18T01:27:12;-10.80;99.90
67750;DHT22;54550;48.838;8.828;2022-12-18T01:29:37;-10.90;99.90
67750;DHT22;54550;48.838;8.828;2022-12-18T01:32:03;-10.90;99.90
67750;DHT22;54550;48.838;8.828;2022-12-18T01:34:29;-10.90;99.90
67750;DHT22;54550;48.838;8.828;2022-12-18T01:36:54;-10.90;99.90
67750;DHT22;54550;48.838;8.828;2022-12-18T01:39:20;-10.70;99.90
67750;DHT22;54550;48.838;8.828;2022-12-18T01:41:46;-10.70;99.90
67750;DHT22;54550;48.838;8.828;2022-12-18T01:49:45;-10.70;99.90
67750;DHT22;54550;48.838;8.828;2022-12-18T01:52:11;-10.40;99.90
67750;DHT22;54550;48.838;8.828;2022-12-18T01:54:37;-10.70;99.90
67750;DHT22;54550;48.838;8.828;2022-12-18T01:57:02;-10.60;99.90
67750;DHT22;54550;48.838;8.828;2022-12-18T01:59:29;-10.60;99.90
67750;DHT22;54550;48.838;8.828;2022-12-18T02:01:55;-10.50;99.90
67750;DHT22;54550;48.838;8.828;2022-12-18T02:04:26;-10.50;99.90
67750;DHT22;54550;48.838;8.828;2022-12-18T02:09:48;-10.40;99.90
67750;DHT22;54550;48.838;8.828;2022-12-18T02:12:20;-10.40;99.90
67750;DHT22;54550;48.838;8.828;2022-12-18T02:15:13;-10.40;99.90
67750;DHT22;54550;48.838;8.828;2022-12-18T02:17:54;-10.50;99.90
67750;DHT22;54550;48.838;8.828;2022-12-18T02:20:32;-10.60;99.90
67750;DHT22;54550;48.838;8.828;2022-12-18T02:23:27;-10.70;99.90
67750;DHT22;54550;48.838;8.828;2022-12-18T02:28:43;-10.70;99.90
67750;DHT22;54550;48.838;8.828;2022-12-18T02:31:13;-10.60;99.90
67750;DHT22;54550;48.838;8.828;2022-12-18T02:33:40;-10.50;99.90
67750;DHT22;54550;48.838;8.828;2022-12-18T02:36:08;-10.30;99.90
67750;DHT22;54550;48.838;8.828;2022-12-18T02:38:35;-10.10;99.90
67750;DHT22;54550;48.838;8.828;2022-12-18T02:41:02;-9.90;99.90
67750;DHT22;54550;48.838;8.828;2022-12-18T02:43:29;-9.80;99.90
67750;DHT22;54550;48.838;8.828;2022-12-18T02:46:00;-9.80;99.90
67750;DHT22;54550;48.838;8.828;2022-12-18T02:48:45;-9.50;99.90
67750;DHT22;54550;48.838;8.828;2022-12-18T02:51:24;-9.70;99.90
67750;DHT22;54550;48.838;8.828;2022-12-18T02:53:58;-9.70;99.90
67750;DHT22;54550;48.838;8.828;2022-12-18T02:56:50;-9.70;99.90
67750;DHT22;54550;48.838;8.828;2022-12-18T02:59:21;-9.80;99.90
67750;DHT22;54550;48.838;8.828;2022-12-18T03:02:19;-9.80;99.90
67750;DHT22;54550;48.838;8.828;2022-12-18T03:04:49;-9.80;99.90
67750;DHT22;54550;48.838;8.828;2022-12-18T03:07:20;-9.80;99.90
67750;DHT22;54550;48.838;8.828;2022-12-18T03:09:50;-9.90;99.90
67750;DHT22;54550;48.838;8.828;2022-12-18T03:12:27;-10.00;99.90
67750;DHT22;54550;48.838;8.828;2022-12-18T03:15:03;-10.10;99.90
67750;DHT22;54550;48.838;8.828;2022-12-18T03:17:31;-10.20;99.90
67750;DHT22;54550;48.838;8.828;2022-12-18T03:20:03;-10.30;99.90
67750;DHT22;54550;48.838;8.828;2022-12-18T03:22:32;-10.40;99.90
67750;DHT22;54550;48.838;8.828;2022-12-18T03:25:01;-10.50;99.90
67750;DHT22;54550;48.838;8.828;2022-12-18T03:27:28;-10.70;99.90
67750;DHT22;54550;48.838;8.828;2022-12-18T03:30:03;-10.80;99.90
67750;DHT22;54550;48.838;8.828;2022-12-18T03:32:49;-10.90;99.90
67750;DHT22;54550;48.838;8.828;2022-12-18T03:35:21;-11.00;99.90
67750;DHT22;54550;48.838;8.828;2022-12-18T03:37:47;-11.00;99.90
67750;DHT22;54550;48.838;8.828;2022-12-18T03:40:12;-11.10;99.90
67750;DHT22;54550;48.838;8.828;2022-12-18T03:42:55;-11.20;99.90
67750;DHT22;54550;48.838;8.828;2022-12-18T03:45:37;-11.40;99.90
67750;DHT22;54550;48.838;8.828;2022-12-18T03:48:17;-11.50;99.90
67750;DHT22;54550;48.838;8.828;2022-12-18T03:51:07;-11.60;99.90
67750;DHT22;54550;48.838;8.828;2022-12-18T03:54:05;-11.70;99.90
67750;DHT22;54550;48.838;8.828;2022-12-18T03:56:36;-11.80;99.90
67750;DHT22;54550;48.838;8.828;2022-12-18T03:59:04;-11.80;99.90
67750;DHT22;54550;48.838;8.828;2022-12-18T04:01:40;-11.80;99.90
67750;DHT22;54550;48.838;8.828;2022-12-18T04:04:06;-11.80;99.90
67750;DHT22;54550;48.838;8.828;2022-12-18T04:06:33;-11.90;99.90
67750;DHT22;54550;48.838;8.828;2022-12-18T04:09:00;-11.80;99.90
67750;DHT22;54550;48.838;8.828;2022-12-18T04:11:26;-11.80;99.90
67750;DHT22;54550;48.838;8.828;2022-12-18T04:13:55;-11.80;99.90
67750;DHT22;54550;48.838;8.828;2022-12-18T04:16:21;-11.80;99.90
67750;DHT22;54550;48.838;8.828;2022-12-18T04:18:47;-11.70;99.90
67750;DHT22;54550;48.838;8.828;2022-12-18T04:21:12;-11.60;99.90
67750;DHT22;54550;48.838;8.828;2022-12-18T04:23:38;-11.50;99.90
67750;DHT22;54550;48.838;8.828;2022-12-18T04:26:03;-11.40;99.90
67750;DHT22;54550;48.838;8.828;2022-12-18T04:28:29;-11.40;99.90
67750;DHT22;54550;48.838;8.828;2022-12-18T04:30:55;-11.50;99.90
67750;DHT22;54550;48.838;8.828;2022-12-18T04:33:20;-11.60;99.90
67750;DHT22;54550;48.838;8.828;2022-12-18T04:35:46;-11.60;99.90
67750;DHT22;54550;48.838;8.828;2022-12-18T04:38:11;-11.40;99.90
67750;DHT22;54550;48.838;8.828;2022-12-18T04:40:37;-11.60;99.90
67750;DHT22;54550;48.838;8.828;2022-12-18T04:43:04;-11.60;99.90
67750;DHT22;54550;48.838;8.828;2022-12-18T04:45:30;-11.60;99.90
67750;DHT22;54550;48.838;8.828;2022-12-18T04:47:57;-11.30;99.90
67750;DHT22;54550;48.838;8.828;2022-12-18T04:50:23;-11.50;99.90
67750;DHT22;54550;48.838;8.828;2022-12-18T04:52:49;-11.50;99.90
67750;DHT22;54550;48.838;8.828;2022-12-18T04:55:15;-11.50;99.90
67750;DHT22;54550;48.838;8.828;2022-12-18T04:57:40;-11.50;99.90
67750;DHT22;54550;48.838;8.828;2022-12-18T05:00:06;-11.40;99.90
67750;DHT22;54550;48.838;8.828;2022-12-18T05:02:32;-11.30;99.90
67750;DHT22;54550;48.838;8.828;2022-12-18T05:04:58;-11.30;99.90
67750;DHT22;54550;48.838;8.828;2022-12-18T05:07:23;-11.20;99.90
67750;DHT22;54550;48.838;8.828;2022-12-18T05:09:49;-11.20;99.90
67750;DHT22;54550;48.838;8.828;2022-12-18T05:12:15;-11.20;99.90
67750;DHT22;54550;48.838;8.828;2022-12-18T05:14:40;-11.30;99.90
67750;DHT22;54550;48.838;8.828;2022-12-18T05:17:06;-11.30;99.90
67750;DHT22;54550;48.838;8.828;2022-12-18T05:19:32;-11.30;99.90
67750;DHT22;54550;48.838;8.828;2022-12-18T05:21:57;-11.30;99.90
67750;DHT22;54550;48.838;8.828;2022-12-18T05:24:23;-11.20;99.90
67750;DHT22;54550;48.838;8.828;2022-12-18T05:26:48;-11.10;99.90
67750;DHT22;54550;48.838;8.828;2022-12-18T05:29:14;-11.10;99.90
67750;DHT22;54550;48.838;8.828;2022-12-18T05:31:40;-10.90;99.90
67750;DHT22;54550;48.838;8.828;2022-12-18T05:34:05;-10.90;99.90
67750;DHT22;54550;48.838;8.828;2022-12-18T05:36:31;-11.00;99.90
67750;DHT22;54550;48.838;8.828;2022-12-18T05:38:57;-11.00;99.90
67750;DHT22;54550;48.838;8.828;2022-12-18T05:41:22;-11.10;99.90
67750;DHT22;54550;48.838;8.828;2022-12-18T05:43:48;-11.00;99.90
67750;DHT22;54550;48.838;8.828;2022-12-18T05:46:17;-10.90;99.90
67750;DHT22;54550;48.838;8.828;2022-12-18T05:48:44;-10.90;99.90
67750;DHT22;54550;48.838;8.828;2022-12-18T05:51:15;-10.90;99.90
67750;DHT22;54550;48.838;8.828;2022-12-18T05:53:41;-10.90;99.90
67750;DHT22;54550;48.838;8.828;2022-12-18T05:56:10;-10.90;99.90
67750;DHT22;54550;48.838;8.828;2022-12-18T05:58:37;-10.90;99.90
67750;DHT22;54550;48.838;8.828;2022-12-18T06:03:32;-10.90;99.90
67750;DHT22;54550;48.838;8.828;2022-12-18T06:05:58;-10.70;99.90
67750;DHT22;54550;48.838;8.828;2022-12-18T06:08:23;-10.80;99.90
67750;DHT22;54550;48.838;8.828;2022-12-18T06:10:50;-10.90;99.90
67750;DHT22;54550;48.838;8.828;2022-12-18T06:13:17;-10.90;99.90
67750;DHT22;54550;48.838;8.828;2022-12-18T06:15:42;-10.90;99.90
67750;DHT22;54550;48.838;8.828;2022-12-18T06:18:08;-10.80;99.90
67750;DHT22;54550;48.838;8.828;2022-12-18T06:20:33;-10.60;99.90
67750;DHT22;54550;48.838;8.828;2022-12-18T06:23:01;-10.50;99.90
67750;DHT22;54550;48.838;8.828;2022-12-18T06:25:27;-10.50;99.90
67750;DHT22;54550;48.838;8.828;2022-12-18T06:27:52;-10.50;99.90
67750;DHT22;54550;48.838;8.828;2022-12-18T06:30:18;-10.40;99.90
67750;DHT22;54550;48.838;8.828;2022-12-18T06:32:44;-10.40;99.90
67750;DHT22;54550;48.838;8.828;2022-12-18T06:35:09;-10.40;99.90
67750;DHT22;54550;48.838;8.828;2022-12-18T06:37:36;-10.30;99.90
67750;DHT22;54550;48.838;8.828;2022-12-18T06:40:02;-10.20;99.90
67750;DHT22;54550;48.838;8.828;2022-12-18T06:42:28;-10.20;99.90
67750;DHT22;54550;48.838;8.828;2022-12-18T06:44:54;-10.00;99.90
67750;DHT22;54550;48.838;8.828;2022-12-18T06:47:20;-10.10;99.90
67750;DHT22;54550;48.838;8.828;2022-12-18T06:49:45;-10.10;99.90
67750;DHT22;54550;48.838;8.828;2022-12-18T06:52:11;-10.00;99.90
67750;DHT22;54550;48.838;8.828;2022-12-18T06:54:36;-9.90;99.90
67750;DHT22;54550;48.838;8.828;2022-12-18T06:57:02;-9.90;99.90
67750;DHT22;54550;48.838;8.828;2022-12-18T06:59:28;-9.80;99.90
67750;DHT22;54550;48.838;8.828;2022-12-18T07:01:53;-10.00;99.90
67750;DHT22;54550;48.838;8.828;2022-12-18T07:04:19;-10.10;99.90
67750;DHT22;54550;48.838;8.828;2022-12-18T07:06:44;-10.10;99.90
67750;DHT22;54550;48.838;8.828;2022-12-18T07:09:10;-10.10;99.90
67750;DHT22;54550;48.838;8.828;2022-12-18T07:11:35;-10.20;99.90
67750;DHT22;54550;48.838;8.828;2022-12-18T07:14:01;-10.20;99.90
67750;DHT22;54550;48.838;8.828;2022-12-18T07:16:26;-10.20;99.90
67750;DHT22;54550;48.838;8.828;2022-12-18T07:18:54;-9.90;99.90
67750;DHT22;54550;48.838;8.828;2022-12-18T07:21:20;-10.20;99.90
67750;DHT22;54550;48.838;8.828;2022-12-18T07:23:46;-10.10;99.90
67750;DHT22;54550;48.838;8.828;2022-12-18T07:26:14;-10.00;99.90
67750;DHT22;54550;48.838;8.828;2022-12-18T07:28:40;-9.90;99.90
67750;DHT22;54550;48.838;8.828;2022-12-18T07:31:09;-9.80;99.90
67750;DHT22;54550;48.838;8.828;2022-12-18T07:33:35;-9.70;99.90
67750;DHT22;54550;48.838;8.828;2022-12-18T07:36:02;-9.60;99.90
67750;DHT22;54550;48.838;8.828;2022-12-18T07:38:29;-9.50;99.90
67750;DHT22;54550;48.838;8.828;2022-12-18T07:40:54;-9.20;99.90
67750;DHT22;54550;48.838;8.828;2022-12-18T07:43:25;-9.30;99.90
67750;DHT22;54550;48.838;8.828;2022-12-18T07:45:50;-9.20;99.90
67750;DHT22;54550;48.838;8.828;2022-12-18T07:48:16;-9.00;99.90
67750;DHT22;54550;48.838;8.828;2022-12-18T07:50:41;-8.90;99.90
67750;DHT22;54550;48.838;8.828;2022-12-18T07:53:07;-8.70;99.90
67750;DHT22;54550;48.838;8.828;2022-12-18T07:55:32;-8.60;99.90
67750;DHT22;54550;48.838;8.828;2022-12-18T07:58:01;-8.50;99.90
67750;DHT22;54550;48.838;8.828;2022-12-18T08:00:27;-8.50;99.90
67750;DHT22;54550;48.838;8.828;2022-12-18T08:02:53;-8.40;99.90
67750;DHT22;54550;48.838;8.828;2022-12-18T08:05:18;-8.30;99.90
67750;DHT22;54550;48.838;8.828;2022-12-18T08:07:46;-8.20;99.90
67750;DHT22;54550;48.838;8.828;2022-12-18T08:10:11;-8.10;99.90
67750;DHT22;54550;48.838;8.828;2022-12-18T08:12:37;-8.10;99.90
67750;DHT22;54550;48.838;8.828;2022-12-18T08:15:02;-8.00;99.90
67750;DHT22;54550;48.838;8.828;2022-12-18T08:17:28;-8.00;99.90
67750;DHT22;54550;48.838;8.828;2022-12-18T08:19:54;-7.90;99.90
67750;DHT22;54550;48.838;8.828;2022-12-18T08:22:19;-7.90;99.90
67750;DHT22;54550;48.838;8.828;2022-12-18T08:24:45;-7.80;99.90
67750;DHT22;54550;48.838;8.828;2022-12-18T08:27:10;-7.80;99.90
67750;DHT22;54550;48.838;8.828;2022-12-18T08:29:36;-7.80;99.90
67750;DHT22;54550;48.838;8.828;2022-12-18T08:32:02;-7.70;99.90
67750;DHT22;54550;48.838;8.828;2022-12-18T08:34:27;-7.60;99.90
67750;DHT22;54550;48.838;8.828;2022-12-18T08:36:53;-7.50;99.90
67750;DHT22;54550;48.838;8.828;2022-12-18T08:39:19;-7.50;99.90
67750;DHT22;54550;48.838;8.828;2022-12-18T08:41:44;-7.40;99.90
67750;DHT22;54550;48.838;8.828;2022-12-18T08:44:30;-7.20;99.90
67750;DHT22;54550;48.838;8.828;2022-12-18T08:47:07;-6.90;99.90
67750;DHT22;54550;48.838;8.828;2022-12-18T08:49:34;-6.80;99.90
67750;DHT22;54550;48.838;8.828;2022-12-18T08:52:00;-6.80;99.90
67750;DHT22;54550;48.838;8.828;2022-12-18T08:54:26;-6.70;99.90
67750;DHT22;54550;48.838;8.828;2022-12-18T08:56:51;-6.50;99.90
67750;DHT22;54550;48.838;8.828;2022-12-18T08:59:18;-6.30;99.90
67750;DHT22;54550;48.838;8.828;2022-12-18T09:01:43;-6.00;99.90
67750;DHT22;54550;48.838;8.828;2022-12-18T09:04:09;-5.70;99.90
67750;DHT22;54550;48.838;8.828;2022-12-18T09:06:35;-5.10;99.90
67750;DHT22;54550;48.838;8.828;2022-12-18T09:09:01;-4.50;99.90
67750;DHT22;54550;48.838;8.828;2022-12-18T09:11:28;-4.00;99.90
67750;DHT22;54550;48.838;8.828;2022-12-18T09:13:55;-3.80;99.90
67750;DHT22;54550;48.838;8.828;2022-12-18T09:16:21;-3.40;99.90
67750;DHT22;54550;48.838;8.828;2022-12-18T09:18:47;-3.50;99.90
67750;DHT22;54550;48.838;8.828;2022-12-18T09:21:18;-3.30;99.90
67750;DHT22;54550;48.838;8.828;2022-12-18T09:23:48;-3.20;99.90
67750;DHT22;54550;48.838;8.828;2022-12-18T09:26:14;-3.00;99.90
67750;DHT22;54550;48.838;8.828;2022-12-18T09:28:40;-2.60;99.90
67750;DHT22;54550;48.838;8.828;2022-12-18T09:31:07;-2.70;99.90
67750;DHT22;54550;48.838;8.828;2022-12-18T09:33:36;-2.50;99.90
67750;DHT22;54550;48.838;8.828;2022-12-18T09:36:04;-2.40;99.90
67750;DHT22;54550;48.838;8.828;2022-12-18T09:38:30;-2.10;99.90
67750;DHT22;54550;48.838;8.828;2022-12-18T09:41:26;-2.30;99.90
67750;DHT22;54550;48.838;8.828;2022-12-18T09:43:49;-2.10;99.90
67750;DHT22;54550;48.838;8.828;2022-12-18T09:46:31;-2.00;99.90
67750;DHT22;54550;48.838;8.828;2022-12-18T09:49:02;-1.90;99.90
67750;DHT22;54550;48.838;8.828;2022-12-18T09:51:55;-2.00;99.90
67750;DHT22;54550;48.838;8.828;2022-12-18T09:54:26;-1.90;99.90
67750;DHT22;54550;48.838;8.828;2022-12-18T09:56:55;-1.60;99.90
67750;DHT22;54550;48.838;8.828;2022-12-18T09:59:26;-1.60;99.90
67750;DHT22;54550;48.838;8.828;2022-12-18T10:01:52;-1.60;99.90
67750;DHT22;54550;48.838;8.828;2022-12-18T10:04:18;-1.80;99.90
67750;DHT22;54550;48.838;8.828;2022-12-18T10:06:52;-1.90;99.90
67750;DHT22;54550;48.838;8.828;2022-12-18T10:12:07;-1.80;99.90
67750;DHT22;54550;48.838;8.828;2022-12-18T10:17:36;-1.20;99.90
67750;DHT22;54550;48.838;8.828;2022-12-18T10:20:24;-1.20;99.90
67750;DHT22;54550;48.838;8.828;2022-12-18T10:23:17;-1.40;99.90
67750;DHT22;54550;48.838;8.828;2022-12-18T10:26:06;-1.20;99.90
67750;DHT22;54550;48.838;8.828;2022-12-18T10:28:37;-1.20;99.90
67750;DHT22;54550;48.838;8.828;2022-12-18T10:31:19;-1.10;99.90
67750;DHT22;54550;48.838;8.828;2022-12-18T10:33:45;-1.00;99.90
67750;DHT22;54550;48.838;8.828;2022-12-18T10:36:11;-1.20;99.90
67750;DHT22;54550;48.838;8.828;2022-12-18T10:38:37;-0.70;99.90
67750;DHT22;54550;48.838;8.828;2022-12-18T10:41:27;-0.80;99.90
67750;DHT22;54550;48.838;8.828;2022-12-18T10:46:41;-1.40;99.90
67750;DHT22;54550;48.838;8.828;2022-12-18T10:49:19;-1.50;99.90
67750;DHT22;54550;48.838;8.828;2022-12-18T10:51:46;-1.60;99.90
67750;DHT22;54550;48.838;8.828;2022-12-18T10:54:21;-1.50;99.90
67750;DHT22;54550;48.838;8.828;2022-12-18T10:56:47;-1.70;99.90
67750;DHT22;54550;48.838;8.828;2022-12-18T10:59:15;-1.60;99.90
67750;DHT22;54550;48.838;8.828;2022-12-18T11:01:54;-1.30;99.90
67750;DHT22;54550;48.838;8.828;2022-12-18T11:07:06;-1.00;99.90
67750;DHT22;54550;48.838;8.828;2022-12-18T11:09:36;-0.70;99.90
67750;DHT22;54550;48.838;8.828;2022-12-18T11:14:51;-0.70;99.90
67750;DHT22;54550;48.838;8.828;2022-12-18T11:17:20;-0.80;99.90
67750;DHT22;54550;48.838;8.828;2022-12-18T11:19:55;-0.70;99.90
67750;DHT22;54550;48.838;8.828;2022-12-18T11:22:27;-1.00;99.90
67750;DHT22;54550;48.838;8.828;2022-12-18T11:27:37;-0.80;99.90
67750;DHT22;54550;48.838;8.828;2022-12-18T11:30:22;-1.00;99.90
67750;DHT22;54550;48.838;8.828;2022-12-18T11:32:55;-0.90;99.90
67750;DHT22;54550;48.838;8.828;2022-12-18T11:38:20;-0.60;99.90
67750;DHT22;54550;48.838;8.828;2022-12-18T11:41:05;-0.80;99.90
67750;DHT22;54550;48.838;8.828;2022-12-18T11:43:44;-0.30;99.90
67750;DHT22;54550;48.838;8.828;2022-12-18T11:46:19;-0.30;99.90
67750;DHT22;54550;48.838;8.828;2022-12-18T11:49:15;-0.50;99.90
67750;DHT22;54550;48.838;8.828;2022-12-18T11:51:50;-0.70;99.90
67750;DHT22;54550;48.838;8.828;2022-12-18T11:54:17;-0.90;99.90
67750;DHT22;54550;48.838;8.828;2022-12-18T11:56:56;-1.60;99.90
67750;DHT22;54550;48.838;8.828;2022-12-18T12:10:28;-2.00;99.90
67750;DHT22;54550;48.838;8.828;2022-12-18T12:16:10;-2.10;99.90
67750;DHT22;54550;48.838;8.828;2022-12-18T12:21:47;-2.30;99.90
67750;DHT22;54550;48.838;8.828;2022-12-18T12:27:46;-2.20;99.90
67750;DHT22;54550;48.838;8.828;2022-12-18T12:30:22;-2.30;99.90
67750;DHT22;54550;48.838;8.828;2022-12-18T12:32:51;-2.40;99.90
67750;DHT22;54550;48.838;8.828;2022-12-18T12:35:49;-2.40;99.90
67750;DHT22;54550;48.838;8.828;2022-12-18T12:38:26;-2.40;99.90
67750;DHT22;54550;48.838;8.828;2022-12-18T12:40:58;-2.30;99.90
67750;DHT22;54550;48.838;8.828;2022-12-18T12:43:31;-2.30;99.90
67750;DHT22;54550;48.838;8.828;2022-12-18T12:46:07;-2.10;99.90
67750;DHT22;54550;48.838;8.828;2022-12-18T12:48:35;-1.80;99.90
67750;DHT22;54550;48.838;8.828;2022-12-18T12:51:08;-1.50;99.90
67750;DHT22;54550;48.838;8.828;2022-12-18T12:53:37;-1.40;99.90
67750;DHT22;54550;48.838;8.828;2022-12-18T12:56:04;-1.30;99.90
67750;DHT22;54550;48.838;8.828;2022-12-18T13:01:28;-1.00;99.90
67750;DHT22;54550;48.838;8.828;2022-12-18T13:06:49;-0.60;99.90
67750;DHT22;54550;48.838;8.828;2022-12-18T13:09:17;-0.70;99.90
67750;DHT22;54550;48.838;8.828;2022-12-18T13:11:45;-0.80;99.90
67750;DHT22;54550;48.838;8.828;2022-12-18T13:14:38;-1.00;99.90
67750;DHT22;54550;48.838;8.828;2022-12-18T13:19:49;-1.20;99.90
67750;DHT22;54550;48.838;8.828;2022-12-18T13:22:45;-1.20;99.90
67750;DHT22;54550;48.838;8.828;2022-12-18T13:25:33;-1.50;99.90
67750;DHT22;54550;48.838;8.828;2022-12-18T13:28:14;-1.50;99.90
67750;DHT22;54550;48.838;8.828;2022-12-18T13:30:55;-1.50;99.90
67750;DHT22;54550;48.838;8.828;2022-12-18T13:38:37;-1.70;99.90
67750;DHT22;54550;48.838;8.828;2022-12-18T13:43:47;-1.80;99.90
67750;DHT22;54550;48.838;8.828;2022-12-18T13:46:26;-1.80;99.90
67750;DHT22;54550;48.838;8.828;2022-12-18T13:51:19;-2.00;99.90
67750;DHT22;54550;48.838;8.828;2022-12-18T13:53:52;-2.20;99.90
67750;DHT22;54550;48.838;8.828;2022-12-18T13:56:26;-2.30;99.90
67750;DHT22;54550;48.838;8.828;2022-12-18T14:01:35;-2.50;99.90
67750;DHT22;54550;48.838;8.828;2022-12-18T14:04:21;-2.70;99.90
67750;DHT22;54550;48.838;8.828;2022-12-18T14:06:49;-2.70;99.90
67750;DHT22;54550;48.838;8.828;2022-12-18T14:09:18;-2.80;99.90
67750;DHT22;54550;48.838;8.828;2022-12-18T14:11:49;-2.90;99.90
67750;DHT22;54550;48.838;8.828;2022-12-18T14:14:17;-3.00;99.90
67750;DHT22;54550;48.838;8.828;2022-12-18T14:16:43;-3.30;99.90
67750;DHT22;54550;48.838;8.828;2022-12-18T14:19:14;-3.20;99.90
67750;DHT22;54550;48.838;8.828;2022-12-18T14:21:48;-3.20;99.90
67750;DHT22;54550;48.838;8.828;2022-12-18T14:24:18;-3.20;99.90
67750;DHT22;54550;48.838;8.828;2022-12-18T14:26:44;-3.30;99.90
67750;DHT22;54550;48.838;8.828;2022-12-18T14:29:25;-3.40;99.90
67750;DHT22;54550;48.838;8.828;2022-12-18T14:34:30;-3.40;99.90
67750;DHT22;54550;48.838;8.828;2022-12-18T14:36:56;-3.50;99.90
67750;DHT22;54550;48.838;8.828;2022-12-18T14:39:22;-3.50;99.90
67750;DHT22;54550;48.838;8.828;2022-12-18T14:41:49;-3.60;99.90
67750;DHT22;54550;48.838;8.828;2022-12-18T14:44:15;-3.60;99.90
67750;DHT22;54550;48.838;8.828;2022-12-18T14:46:43;-3.70;99.90
67750;DHT22;54550;48.838;8.828;2022-12-18T14:49:30;-3.70;99.90
67750;DHT22;54550;48.838;8.828;2022-12-18T14:52:01;-3.70;99.90
67750;DHT22;54550;48.838;8.828;2022-12-18T14:54:28;-3.80;99.90
67750;DHT22;54550;48.838;8.828;2022-12-18T14:56:57;-3.90;99.90
67750;DHT22;54550;48.838;8.828;2022-12-18T14:59:26;-3.90;99.90
67750;DHT22;54550;48.838;8.828;2022-12-18T15:07:44;-4.00;99.90
67750;DHT22;54550;48.838;8.828;2022-12-18T15:10:16;-4.10;99.90
67750;DHT22;54550;48.838;8.828;2022-12-18T15:12:48;-4.10;99.90
67750;DHT22;54550;48.838;8.828;2022-12-18T15:20:56;-4.20;99.90
67750;DHT22;54550;48.838;8.828;2022-12-18T15:23:36;-4.30;99.90
67750;DHT22;54550;48.838;8.828;2022-12-18T15:26:07;-4.30;99.90
67750;DHT22;54550;48.838;8.828;2022-12-18T15:28:37;-4.30;99.90
67750;DHT22;54550;48.838;8.828;2022-12-18T15:33:42;-4.40;99.90
67750;DHT22;54550;48.838;8.828;2022-12-18T15:36:14;-4.40;99.90
67750;DHT22;54550;48.838;8.828;2022-12-18T15:38:40;-4.40;99.90
67750;DHT22;54550;48.838;8.828;2022-12-18T15:41:13;-4.50;99.90
67750;DHT22;54550;48.838;8.828;2022-12-18T15:43:38;-4.50;99.90
67750;DHT22;54550;48.838;8.828;2022-12-18T15:46:06;-4.50;99.90
67750;DHT22;54550;48.838;8.828;2022-12-18T15:48:35;-4.60;99.90
67750;DHT22;54550;48.838;8.828;2022-12-18T15:51:01;-4.50;99.90
67750;DHT22;54550;48.838;8.828;2022-12-18T15:53:32;-4.50;99.90
67750;DHT22;54550;48.838;8.828;2022-12-18T15:55:58;-4.50;99.90
67750;DHT22;54550;48.838;8.828;2022-12-18T15:58:42;-4.60;99.90
67750;DHT22;54550;48.838;8.828;2022-12-18T16:01:09;-4.50;99.90
67750;DHT22;54550;48.838;8.828;2022-12-18T16:03:36;-4.60;99.90
67750;DHT22;54550;48.838;8.828;2022-12-18T16:06:03;-4.60;99.90
67750;DHT22;54550;48.838;8.828;2022-12-18T16:08:30;-4.30;99.90
67750;DHT22;54550;48.838;8.828;2022-12-18T16:10:57;-4.60;99.90
67750;DHT22;54550;48.838;8.828;2022-12-18T16:13:24;-4.70;99.90
67750;DHT22;54550;48.838;8.828;2022-12-18T16:15:49;-4.60;99.90
67750;DHT22;54550;48.838;8.828;2022-12-18T16:18:15;-4.70;99.90
67750;DHT22;54550;48.838;8.828;2022-12-18T16:20:43;-4.70;99.90
67750;DHT22;54550;48.838;8.828;2022-12-18T16:23:09;-4.50;99.90
67750;DHT22;54550;48.838;8.828;2022-12-18T16:25:35;-4.70;99.90
67750;DHT22;54550;48.838;8.828;2022-12-18T16:28:00;-4.70;99.90
67750;DHT22;54550;48.838;8.828;2022-12-18T16:30:30;-4.60;99.90
67750;DHT22;54550;48.838;8.828;2022-12-18T16:32:57;-4.60;99.90
67750;DHT22;54550;48.838;8.828;2022-12-18T16:35:24;-4.60;99.90
67750;DHT22;54550;48.838;8.828;2022-12-18T16:37:49;-4.60;99.90
67750;DHT22;54550;48.838;8.828;2022-12-18T16:40:16;-4.50;99.90
67750;DHT22;54550;48.838;8.828;2022-12-18T16:42:44;-4.30;99.90
67750;DHT22;54550;48.838;8.828;2022-12-18T16:45:13;-4.30;99.90
67750;DHT22;54550;48.838;8.828;2022-12-18T16:47:40;-4.30;99.90
67750;DHT22;54550;48.838;8.828;2022-12-18T16:50:06;-4.30;99.90
67750;DHT22;54550;48.838;8.828;2022-12-18T16:52:33;-4.20;99.90
67750;DHT22;54550;48.838;8.828;2022-12-18T16:54:59;-4.20;99.90
67750;DHT22;54550;48.838;8.828;2022-12-18T16:57:24;-4.20;99.90
67750;DHT22;54550;48.838;8.828;2022-12-18T16:59:50;-4.10;99.90
67750;DHT22;54550;48.838;8.828;2022-12-18T17:02:19;-4.00;99.90
67750;DHT22;54550;48.838;8.828;2022-12-18T17:04:45;-4.10;99.90
67750;DHT22;54550;48.838;8.828;2022-12-18T17:07:11;-4.10;99.90
67750;DHT22;54550;48.838;8.828;2022-12-18T17:09:37;-4.10;99.90
67750;DHT22;54550;48.838;8.828;2022-12-18T17:12:03;-4.20;99.90